sensor_id;sensor_type;location;lat;lon;timestamp;pressure;altitude;pressure_sealevel;temperature;humidity
57232;BME280;43488;46.934;8.276;2023-08-12T00:02:16;96881.94;;;21.36;100.00
57232;BME280;43488;46.934;8.276;2023-08-12T00:04:45;96876.88;;;21.40;100.00
57232;BME280;43488;46.934;8.276;2023-08-12T00:07:12;96876.59;;;21.36;100.00
57232;BME280;43488;46.934;8.276;2023-08-12T00:09:40;96867.72;;;21.25;100.00
57232;BME280;43488;46.934;8.276;2023-08-12T00:12:08;96860.75;;;21.24;100.00
57232;BME280;43488;46.934;8.276;2023-08-12T00:14:35;96858.63;;;21.21;100.00
57232;BME280;43488;46.934;8.276;2023-08-12T00:17:03;96862.34;;;21.20;99.81
57232;BME280;43488;46.934;8.276;2023-08-12T00:19:30;96858.88;;;21.15;100.00
57232;BME280;43488;46.934;8.276;2023-08-12T00:21:57;96856.47;;;21.18;100.00
57232;BME280;43488;46.934;8.276;2023-08-12T00:24:25;96857.53;;;21.22;100.00
57232;BME280;43488;46.934;8.276;2023-08-12T00:26:53;96854.59;;;21.24;100.00
57232;BME280;43488;46.934;8.276;2023-08-12T00:29:20;96856.47;;;21.23;100.00
57232;BME280;43488;46.934;8.276;2023-08-12T00:31:48;96857.28;;;21.24;100.00
57232;BME280;43488;46.934;8.276;2023-08-12T00:34:17;96858.34;;;21.18;100.00
57232;BME280;43488;46.934;8.276;2023-08-12T00:36:48;96857.00;;;21.15;100.00
57232;BME280;43488;46.934;8.276;2023-08-12T00:39:15;96854.88;;;21.12;100.00
57232;BME280;43488;46.934;8.276;2023-08-12T00:41:42;96859.94;;;21.09;100.00
57232;BME280;43488;46.934;8.276;2023-08-12T00:44:10;96858.31;;;21.08;100.00
57232;BME280;43488;46.934;8.276;2023-08-12T00:46:38;96855.38;;;20.94;100.00
57232;BME280;43488;46.934;8.276;2023-08-12T00:49:08;96851.31;;;20.81;100.00
57232;BME280;43488;46.934;8.276;2023-08-12T00:51:36;96853.97;;;20.71;100.00
57232;BME280;43488;46.934;8.276;2023-08-12T00:54:05;96858.47;;;20.65;100.00
57232;BME280;43488;46.934;8.276;2023-08-12T00:56:34;96856.91;;;20.69;100.00
57232;BME280;43488;46.934;8.276;2023-08-12T00:59:05;96860.66;;;20.68;100.00
57232;BME280;43488;46.934;8.276;2023-08-12T01:01:35;96850.22;;;20.72;100.00
57232;BME280;43488;46.934;8.276;2023-08-12T01:04:05;96853.16;;;20.76;100.00
57232;BME280;43488;46.934;8.276;2023-08-12T01:06:32;96842.44;;;20.65;100.00
57232;BME280;43488;46.934;8.276;2023-08-12T01:09:02;96847.47;;;20.52;100.00
57232;BME280;43488;46.934;8.276;2023-08-12T01:11:46;96842.66;;;20.54;100.00
57232;BME280;43488;46.934;8.276;2023-08-12T01:17:05;96842.13;;;20.57;100.00
57232;BME280;43488;46.934;8.276;2023-08-12T01:19:38;96845.06;;;20.50;100.00
57232;BME280;43488;46.934;8.276;2023-08-12T01:22:10;96837.84;;;20.51;100.00
57232;BME280;43488;46.934;8.276;2023-08-12T01:24:39;96847.47;;;20.52;100.00
57232;BME280;43488;46.934;8.276;2023-08-12T01:27:09;96845.59;;;20.52;100.00
57232;BME280;43488;46.934;8.276;2023-08-12T01:29:41;96846.41;;;20.53;100.00
57232;BME280;43488;46.934;8.276;2023-08-12T01:38:19;96845.06;;;20.55;100.00
57232;BME280;43488;46.934;8.276;2023-08-12T01:40:47;96840.78;;;20.54;100.00
57232;BME280;43488;46.934;8.276;2023-08-12T01:43:16;96844.22;;;20.44;100.00
57232;BME280;43488;46.934;8.276;2023-08-12T01:45:44;96841.81;;;20.43;100.00
57232;BME280;43488;46.934;8.276;2023-08-12T01:48:11;96842.63;;;20.43;100.00
57232;BME280;43488;46.934;8.276;2023-08-12T01:50:38;96836.25;;;20.50;100.00
57232;BME280;43488;46.934;8.276;2023-08-12T01:53:05;96831.97;;;20.54;100.00
57232;BME280;43488;46.934;8.276;2023-08-12T01:55:33;96829.03;;;20.55;100.00
57232;BME280;43488;46.934;8.276;2023-08-12T01:58:00;96829.81;;;20.56;100.00
57232;BME280;43488;46.934;8.276;2023-08-12T02:00:27;96826.66;;;20.59;100.00
57232;BME280;43488;46.934;8.276;2023-08-12T02:02:55;96829.75;;;20.40;100.00
57232;BME280;43488;46.934;8.276;2023-08-12T02:05:24;96827.63;;;20.42;100.00
57232;BME280;43488;46.934;8.276;2023-08-12T02:07:51;96824.44;;;20.45;100.00
57232;BME280;43488;46.934;8.276;2023-08-12T02:10:18;96815.88;;;20.43;100.00
57232;BME280;43488;46.934;8.276;2023-08-12T02:12:45;96827.63;;;20.42;100.00
57232;BME280;43488;46.934;8.276;2023-08-12T02:15:12;96814.25;;;20.42;100.00
57232;BME280;43488;46.934;8.276;2023-08-12T02:17:40;96824.97;;;20.48;100.00
57232;BME280;43488;46.934;8.276;2023-08-12T02:20:09;96822.75;;;20.29;100.00
57232;BME280;43488;46.934;8.276;2023-08-12T02:22:38;96823.03;;;20.33;100.00
57232;BME280;43488;46.934;8.276;2023-08-12T02:25:06;96822.50;;;20.36;100.00
57232;BME280;43488;46.934;8.276;2023-08-12T02:27:34;96823.84;;;20.33;100.00
57232;BME280;43488;46.934;8.276;2023-08-12T02:30:01;96827.84;;;20.31;100.00
57232;BME280;43488;46.934;8.276;2023-08-12T02:32:29;96825.16;;;20.26;100.00
57232;BME280;43488;46.934;8.276;2023-08-12T02:34:58;96821.91;;;20.18;100.00
57232;BME280;43488;46.934;8.276;2023-08-12T02:37:26;96820.03;;;20.14;100.00
57232;BME280;43488;46.934;8.276;2023-08-12T02:39:53;96816.53;;;20.13;100.00
57232;BME280;43488;46.934;8.276;2023-08-12T02:42:21;96816.81;;;20.12;100.00
57232;BME280;43488;46.934;8.276;2023-08-12T02:44:49;96815.22;;;20.16;100.00
57232;BME280;43488;46.934;8.276;2023-08-12T02:47:17;96811.75;;;20.15;100.00
57232;BME280;43488;46.934;8.276;2023-08-12T02:49:45;96815.75;;;20.13;100.00
57232;BME280;43488;46.934;8.276;2023-08-12T02:52:12;96805.28;;;20.11;100.00
57232;BME280;43488;46.934;8.276;2023-08-12T02:54:39;96810.63;;;20.11;100.00
57232;BME280;43488;46.934;8.276;2023-08-12T02:57:06;96807.97;;;20.11;100.00
57232;BME280;43488;46.934;8.276;2023-08-12T02:59:34;96809.88;;;20.16;100.00
57232;BME280;43488;46.934;8.276;2023-08-12T03:02:01;96810.41;;;20.18;100.00
57232;BME280;43488;46.934;8.276;2023-08-12T03:04:29;96802.91;;;20.15;100.00
57232;BME280;43488;46.934;8.276;2023-08-12T03:06:56;96807.72;;;20.13;100.00
57232;BME280;43488;46.934;8.276;2023-08-12T03:09:23;96805.28;;;20.11;100.00
57232;BME280;43488;46.934;8.276;2023-08-12T03:11:51;96810.94;;;20.15;100.00
57232;BME280;43488;46.934;8.276;2023-08-12T03:14:19;96808.25;;;20.15;100.00
57232;BME280;43488;46.934;8.276;2023-08-12T03:16:46;96807.69;;;20.08;100.00
57232;BME280;43488;46.934;8.276;2023-08-12T03:19:14;96807.13;;;20.01;100.00
57232;BME280;43488;46.934;8.276;2023-08-12T03:21:41;96807.91;;;20.01;100.00
57232;BME280;43488;46.934;8.276;2023-08-12T03:24:08;96805.50;;;20.00;100.00
57232;BME280;43488;46.934;8.276;2023-08-12T03:26:36;96810.31;;;19.98;100.00
57232;BME280;43488;46.934;8.276;2023-08-12T03:29:03;96807.88;;;19.91;100.00
57232;BME280;43488;46.934;8.276;2023-08-12T03:31:31;96811.09;;;19.93;100.00
57232;BME280;43488;46.934;8.276;2023-08-12T03:33:58;96815.88;;;19.91;100.00
57232;BME280;43488;46.934;8.276;2023-08-12T03:36:25;96806.56;;;19.94;100.00
57232;BME280;43488;46.934;8.276;2023-08-12T03:38:53;96817.78;;;19.96;100.00
57232;BME280;43488;46.934;8.276;2023-08-12T03:41:23;96819.94;;;19.99;100.00
57232;BME280;43488;46.934;8.276;2023-08-12T03:43:50;96818.38;;;20.03;100.00
57232;BME280;43488;46.934;8.276;2023-08-12T03:46:18;96815.94;;;20.01;100.00
57232;BME280;43488;46.934;8.276;2023-08-12T03:48:45;96817.75;;;19.91;100.00
57232;BME280;43488;46.934;8.276;2023-08-12T03:51:12;96819.84;;;19.78;100.00
57232;BME280;43488;46.934;8.276;2023-08-12T03:53:39;96826.78;;;19.79;100.00
57232;BME280;43488;46.934;8.276;2023-08-12T03:56:07;96818.97;;;19.73;100.00
57232;BME280;43488;46.934;8.276;2023-08-12T03:58:34;96813.88;;;19.66;100.00
57232;BME280;43488;46.934;8.276;2023-08-12T04:01:01;96817.63;;;19.70;100.00
57232;BME280;43488;46.934;8.276;2023-08-12T04:03:29;96817.41;;;19.77;100.00
57232;BME280;43488;46.934;8.276;2023-08-12T04:05:56;96825.19;;;19.83;100.00
57232;BME280;43488;46.934;8.276;2023-08-12T04:08:24;96816.38;;;19.83;100.00
57232;BME280;43488;46.934;8.276;2023-08-12T04:10:52;96812.41;;;19.85;100.00
57232;BME280;43488;46.934;8.276;2023-08-12T04:13:19;96807.88;;;19.91;100.00
57232;BME280;43488;46.934;8.276;2023-08-12T04:15:50;96793.75;;;19.96;100.00
57232;BME280;43488;46.934;8.276;2023-08-12T04:18:17;96794.81;;;20.00;100.00
57232;BME280;43488;46.934;8.276;2023-08-12T04:20:47;96804.19;;;20.02;100.00
57232;BME280;43488;46.934;8.276;2023-08-12T04:23:15;96799.09;;;20.01;100.00
57232;BME280;43488;46.934;8.276;2023-08-12T04:25:44;96807.69;;;20.03;100.00
57232;BME280;43488;46.934;8.276;2023-08-12T04:28:14;96802.56;;;20.01;100.00
57232;BME280;43488;46.934;8.276;2023-08-12T04:30:43;96801.78;;;20.01;100.00
57232;BME280;43488;46.934;8.276;2023-08-12T04:33:13;96800.41;;;19.93;100.00
57232;BME280;43488;46.934;8.276;2023-08-12T04:35:41;96799.38;;;19.99;100.00
57232;BME280;43488;46.934;8.276;2023-08-12T04:38:08;96806.03;;;19.97;100.00
57232;BME280;43488;46.934;8.276;2023-08-12T04:40:39;96805.25;;;20.01;100.00
57232;BME280;43488;46.934;8.276;2023-08-12T04:43:12;96802.88;;;20.05;100.00
57232;BME280;43488;46.934;8.276;2023-08-12T04:45:40;96806.88;;;20.07;100.00
57232;BME280;43488;46.934;8.276;2023-08-12T04:48:11;96810.91;;;20.10;100.00
57232;BME280;43488;46.934;8.276;2023-08-12T04:50:39;96802.91;;;20.15;100.00
57232;BME280;43488;46.934;8.276;2023-08-12T04:53:06;96810.63;;;20.11;100.00
57232;BME280;43488;46.934;8.276;2023-08-12T04:55:37;96807.97;;;20.11;100.00
57232;BME280;43488;46.934;8.276;2023-08-12T04:58:05;96809.88;;;20.16;100.00
57232;BME280;43488;46.934;8.276;2023-08-12T05:00:33;96821.38;;;20.16;100.00
57232;BME280;43488;46.934;8.276;2023-08-12T05:03:00;96808.78;;;20.12;100.00
57232;BME280;43488;46.934;8.276;2023-08-12T05:05:28;96818.91;;;20.10;100.00
57232;BME280;43488;46.934;8.276;2023-08-12T05:07:55;96818.41;;;20.13;100.00
57232;BME280;43488;46.934;8.276;2023-08-12T05:10:22;96815.44;;;20.09;100.00
57232;BME280;43488;46.934;8.276;2023-08-12T05:12:50;96809.03;;;20.10;100.00
57232;BME280;43488;46.934;8.276;2023-08-12T05:15:19;96804.00;;;20.14;100.00
57232;BME280;43488;46.934;8.276;2023-08-12T05:17:47;96808.84;;;20.22;100.00
57232;BME280;43488;46.934;8.276;2023-08-12T05:20:14;96800.31;;;20.30;100.00
57232;BME280;43488;46.934;8.276;2023-08-12T05:22:42;96807.81;;;20.38;100.00
57232;BME280;43488;46.934;8.276;2023-08-12T05:25:10;96805.19;;;20.43;100.00
57232;BME280;43488;46.934;8.276;2023-08-12T05:27:39;96803.06;;;20.45;100.00
57232;BME280;43488;46.934;8.276;2023-08-12T05:30:07;96802.81;;;20.52;100.00
57232;BME280;43488;46.934;8.276;2023-08-12T05:32:34;96792.69;;;20.59;100.00
57232;BME280;43488;46.934;8.276;2023-08-12T05:35:02;96807.41;;;20.67;100.00
57232;BME280;43488;46.934;8.276;2023-08-12T05:37:29;96803.66;;;20.73;100.00
57232;BME280;43488;46.934;8.276;2023-08-12T05:39:56;96800.47;;;20.81;100.00
57232;BME280;43488;46.934;8.276;2023-08-12T05:42:24;96800.22;;;20.88;100.00
57232;BME280;43488;46.934;8.276;2023-08-12T05:44:52;96806.38;;;20.93;100.00
57232;BME280;43488;46.934;8.276;2023-08-12T05:47:19;96807.72;;;20.96;100.00
57232;BME280;43488;46.934;8.276;2023-08-12T05:49:47;96821.66;;;21.08;100.00
57232;BME280;43488;46.934;8.276;2023-08-12T05:52:14;96821.41;;;21.15;100.00
57232;BME280;43488;46.934;8.276;2023-08-12T05:54:41;96824.34;;;21.23;100.00
57232;BME280;43488;46.934;8.276;2023-08-12T05:57:08;96820.88;;;21.28;100.00
57232;BME280;43488;46.934;8.276;2023-08-12T05:59:36;96815.81;;;21.32;100.00
57232;BME280;43488;46.934;8.276;2023-08-12T06:02:03;96821.44;;;21.35;100.00
57232;BME280;43488;46.934;8.276;2023-08-12T06:04:30;96818.22;;;21.33;100.00
57232;BME280;43488;46.934;8.276;2023-08-12T06:06:58;96817.16;;;21.34;100.00
57232;BME280;43488;46.934;8.276;2023-08-12T06:09:26;96820.63;;;21.40;100.00
57232;BME280;43488;46.934;8.276;2023-08-12T06:11:53;96817.69;;;21.41;100.00
57232;BME280;43488;46.934;8.276;2023-08-12T06:14:20;96816.06;;;21.50;100.00
57232;BME280;43488;46.934;8.276;2023-08-12T06:16:49;96810.97;;;21.59;100.00
57232;BME280;43488;46.934;8.276;2023-08-12T06:19:16;96814.97;;;21.72;100.00
57232;BME280;43488;46.934;8.276;2023-08-12T06:21:44;96823.81;;;21.77;100.00
57232;BME280;43488;46.934;8.276;2023-08-12T06:24:11;96828.63;;;21.85;100.00
57232;BME280;43488;46.934;8.276;2023-08-12T06:26:38;96823.22;;;21.91;100.00
57232;BME280;43488;46.934;8.276;2023-08-12T06:29:05;96819.16;;;22.03;100.00
57232;BME280;43488;46.934;8.276;2023-08-12T06:31:33;96815.16;;;22.16;100.00
57232;BME280;43488;46.934;8.276;2023-08-12T06:34:00;96821.53;;;22.30;98.77
57232;BME280;43488;46.934;8.276;2023-08-12T06:36:28;96833.03;;;22.41;97.21
57232;BME280;43488;46.934;8.276;2023-08-12T06:38:55;96817.19;;;22.45;93.85
57232;BME280;43488;46.934;8.276;2023-08-12T06:41:22;96821.41;;;22.56;94.62
57232;BME280;43488;46.934;8.276;2023-08-12T06:43:49;96810.09;;;22.64;93.00
57232;BME280;43488;46.934;8.276;2023-08-12T06:46:16;96802.00;;;22.74;89.43
57232;BME280;43488;46.934;8.276;2023-08-12T06:48:44;96795.25;;;22.82;89.60
57232;BME280;43488;46.934;8.276;2023-08-12T06:51:11;96803.25;;;22.92;92.34
57232;BME280;43488;46.934;8.276;2023-08-12T06:53:39;96809.69;;;22.96;96.90
57232;BME280;43488;46.934;8.276;2023-08-12T06:56:08;96805.38;;;22.95;97.94
57232;BME280;43488;46.934;8.276;2023-08-12T06:58:36;96797.09;;;22.91;96.32
57232;BME280;43488;46.934;8.276;2023-08-12T07:01:03;96800.84;;;22.95;96.47
57232;BME280;43488;46.934;8.276;2023-08-12T07:03:31;96800.84;;;22.90;96.06
57232;BME280;43488;46.934;8.276;2023-08-12T07:06:00;96814.50;;;22.94;96.58
57232;BME280;43488;46.934;8.276;2023-08-12T07:08:27;96808.34;;;22.93;95.74
57232;BME280;43488;46.934;8.276;2023-08-12T07:10:55;96811.28;;;22.97;94.11
57232;BME280;43488;46.934;8.276;2023-08-12T07:13:22;96819.88;;;22.99;94.56
57232;BME280;43488;46.934;8.276;2023-08-12T07:15:50;96811.25;;;23.02;96.31
57232;BME280;43488;46.934;8.276;2023-08-12T07:18:17;96816.06;;;23.05;96.07
57232;BME280;43488;46.934;8.276;2023-08-12T07:20:46;96822.25;;;23.06;95.84
57232;BME280;43488;46.934;8.276;2023-08-12T07:23:14;96816.06;;;23.05;95.05
57232;BME280;43488;46.934;8.276;2023-08-12T07:25:41;96813.63;;;23.09;93.34
57232;BME280;43488;46.934;8.276;2023-08-12T07:28:10;96813.59;;;23.14;91.33
57232;BME280;43488;46.934;8.276;2023-08-12T07:30:37;96803.09;;;23.12;88.41
57232;BME280;43488;46.934;8.276;2023-08-12T07:33:05;96808.47;;;23.12;91.17
57232;BME280;43488;46.934;8.276;2023-08-12T07:35:32;96807.13;;;23.15;89.23
57232;BME280;43488;46.934;8.276;2023-08-12T07:38:00;96817.03;;;23.19;88.25
57232;BME280;43488;46.934;8.276;2023-08-12T07:40:27;96817.03;;;23.19;90.28
57232;BME280;43488;46.934;8.276;2023-08-12T07:42:54;96820.22;;;23.21;91.32
57232;BME280;43488;46.934;8.276;2023-08-12T07:45:22;96830.16;;;23.21;91.73
57232;BME280;43488;46.934;8.276;2023-08-12T07:47:50;96839.03;;;23.21;91.10
57232;BME280;43488;46.934;8.276;2023-08-12T07:50:18;96841.69;;;23.26;91.16
57232;BME280;43488;46.934;8.276;2023-08-12T07:52:45;96843.25;;;23.33;89.92
57232;BME280;43488;46.934;8.276;2023-08-12T07:55:14;96851.03;;;23.34;90.21
57232;BME280;43488;46.934;8.276;2023-08-12T07:57:42;96855.03;;;23.37;90.93
57232;BME280;43488;46.934;8.276;2023-08-12T08:00:09;96842.63;;;23.41;92.79
57232;BME280;43488;46.934;8.276;2023-08-12T08:02:38;96833.75;;;23.45;92.07
57232;BME280;43488;46.934;8.276;2023-08-12T08:05:06;96833.22;;;23.43;89.29
57232;BME280;43488;46.934;8.276;2023-08-12T08:07:34;96820.03;;;23.47;89.10
57232;BME280;43488;46.934;8.276;2023-08-12T08:10:02;96826.97;;;23.53;88.34
57232;BME280;43488;46.934;8.276;2023-08-12T08:12:30;96824.56;;;23.51;89.53
57232;BME280;43488;46.934;8.276;2023-08-12T08:14:57;96824.59;;;23.46;91.31
57232;BME280;43488;46.934;8.276;2023-08-12T08:17:24;96825.91;;;23.49;88.03
57232;BME280;43488;46.934;8.276;2023-08-12T08:19:54;96824.50;;;23.56;88.67
57232;BME280;43488;46.934;8.276;2023-08-12T08:22:21;96828.50;;;23.64;87.11
57232;BME280;43488;46.934;8.276;2023-08-12T08:24:48;96811.59;;;23.64;86.86
57232;BME280;43488;46.934;8.276;2023-08-12T08:27:16;96816.97;;;23.64;88.35
57232;BME280;43488;46.934;8.276;2023-08-12T08:29:43;96809.75;;;23.59;89.13
57232;BME280;43488;46.934;8.276;2023-08-12T08:32:11;96817.53;;;23.61;89.56
57232;BME280;43488;46.934;8.276;2023-08-12T08:34:38;96822.34;;;23.59;90.55
57232;BME280;43488;46.934;8.276;2023-08-12T08:37:05;96815.38;;;23.58;91.19
57232;BME280;43488;46.934;8.276;2023-08-12T08:39:33;96826.41;;;23.56;95.54
57232;BME280;43488;46.934;8.276;2023-08-12T08:42:00;96830.69;;;23.57;95.33
57232;BME280;43488;46.934;8.276;2023-08-12T08:44:29;96832.28;;;23.58;98.25
57232;BME280;43488;46.934;8.276;2023-08-12T08:47:00;96833.09;;;23.64;99.07
57232;BME280;43488;46.934;8.276;2023-08-12T08:49:28;96824.09;;;23.78;96.60
57232;BME280;43488;46.934;8.276;2023-08-12T08:51:59;96830.97;;;23.90;100.00
57232;BME280;43488;46.934;8.276;2023-08-12T08:54:27;96823.25;;;24.07;98.36
57232;BME280;43488;46.934;8.276;2023-08-12T08:56:56;96831.03;;;24.08;97.59
57232;BME280;43488;46.934;8.276;2023-08-12T08:59:23;96832.34;;;24.11;100.00
57232;BME280;43488;46.934;8.276;2023-08-12T09:01:52;96838.84;;;24.34;100.00
57232;BME280;43488;46.934;8.276;2023-08-12T09:04:21;96845.91;;;24.49;99.41
57232;BME280;43488;46.934;8.276;2023-08-12T09:06:52;96851.63;;;24.66;91.56
57232;BME280;43488;46.934;8.276;2023-08-12T09:09:21;96861.09;;;24.82;98.34
57232;BME280;43488;46.934;8.276;2023-08-12T09:11:52;96859.41;;;24.86;92.57
57232;BME280;43488;46.934;8.276;2023-08-12T09:14:20;96866.34;;;24.92;90.89
57232;BME280;43488;46.934;8.276;2023-08-12T09:16:47;96882.91;;;25.05;90.51
57232;BME280;43488;46.934;8.276;2023-08-12T09:19:14;96890.28;;;24.94;93.70
57232;BME280;43488;46.934;8.276;2023-08-12T09:21:42;96892.69;;;24.95;92.84
57232;BME280;43488;46.934;8.276;2023-08-12T09:24:09;96892.63;;;25.01;84.22
57232;BME280;43488;46.934;8.276;2023-08-12T09:26:37;96897.19;;;25.24;85.52
57232;BME280;43488;46.934;8.276;2023-08-12T09:29:04;96908.53;;;25.40;90.49
57232;BME280;43488;46.934;8.276;2023-08-12T09:31:31;96927.09;;;25.41;86.18
57232;BME280;43488;46.934;8.276;2023-08-12T09:34:05;96924.94;;;25.43;82.22
57232;BME280;43488;46.934;8.276;2023-08-12T09:36:35;96923.69;;;25.36;80.89
57232;BME280;43488;46.934;8.276;2023-08-12T09:39:07;96933.53;;;25.27;78.97
57232;BME280;43488;46.934;8.276;2023-08-12T09:41:38;96938.03;;;25.12;79.36
57232;BME280;43488;46.934;8.276;2023-08-12T09:44:11;96947.59;;;25.00;81.10
57232;BME280;43488;46.934;8.276;2023-08-12T09:46:39;96952.34;;;24.84;84.48
57232;BME280;43488;46.934;8.276;2023-08-12T09:49:08;96971.63;;;24.72;86.22
57232;BME280;43488;46.934;8.276;2023-08-12T09:51:36;96969.03;;;24.62;87.68
57232;BME280;43488;46.934;8.276;2023-08-12T09:54:04;96971.84;;;24.52;90.34
57232;BME280;43488;46.934;8.276;2023-08-12T09:56:36;96963.00;;;24.46;78.82
57232;BME280;43488;46.934;8.276;2023-08-12T09:59:06;96956.94;;;24.35;71.89
57232;BME280;43488;46.934;8.276;2023-08-12T10:01:37;96939.78;;;24.26;70.20
57232;BME280;43488;46.934;8.276;2023-08-12T10:04:11;96919.44;;;24.15;72.37
57232;BME280;43488;46.934;8.276;2023-08-12T10:06:41;96910.63;;;24.09;73.67
57232;BME280;43488;46.934;8.276;2023-08-12T10:09:10;96905.81;;;24.06;75.77
57232;BME280;43488;46.934;8.276;2023-08-12T10:11:38;96896.75;;;23.97;78.72
57232;BME280;43488;46.934;8.276;2023-08-12T10:14:06;96881.03;;;23.80;79.90
57232;BME280;43488;46.934;8.276;2023-08-12T10:16:36;96891.09;;;23.70;81.31
57232;BME280;43488;46.934;8.276;2023-08-12T10:19:10;96883.41;;;23.53;83.17
57232;BME280;43488;46.934;8.276;2023-08-12T10:21:38;96884.78;;;23.50;84.17
57232;BME280;43488;46.934;8.276;2023-08-12T10:24:06;96886.44;;;23.41;82.75
57232;BME280;43488;46.934;8.276;2023-08-12T10:26:33;96889.88;;;23.47;82.08
57232;BME280;43488;46.934;8.276;2023-08-12T10:29:01;96880.13;;;23.56;81.36
57232;BME280;43488;46.934;8.276;2023-08-12T10:31:29;96884.19;;;23.53;84.57
57232;BME280;43488;46.934;8.276;2023-08-12T10:33:59;96882.47;;;23.68;87.24
57232;BME280;43488;46.934;8.276;2023-08-12T10:36:27;96870.31;;;23.75;85.47
57232;BME280;43488;46.934;8.276;2023-08-12T10:38:56;96865.28;;;23.98;84.16
57232;BME280;43488;46.934;8.276;2023-08-12T10:41:25;96887.09;;;24.20;83.48
57232;BME280;43488;46.934;8.276;2023-08-12T10:44:02;96888.78;;;24.16;80.99
57232;BME280;43488;46.934;8.276;2023-08-12T10:46:36;96894.63;;;24.23;83.18
57232;BME280;43488;46.934;8.276;2023-08-12T10:49:08;96894.25;;;24.30;84.60
57232;BME280;43488;46.934;8.276;2023-08-12T10:51:55;96896.44;;;24.28;85.41
57232;BME280;43488;46.934;8.276;2023-08-12T10:54:26;96897.41;;;24.42;84.22
57232;BME280;43488;46.934;8.276;2023-08-12T11:02:43;96901.06;;;24.51;90.53
57232;BME280;43488;46.934;8.276;2023-08-12T11:05:10;96908.16;;;24.66;88.92
57232;BME280;43488;46.934;8.276;2023-08-12T11:07:42;96904.69;;;24.84;87.61
57232;BME280;43488;46.934;8.276;2023-08-12T11:10:24;96895.75;;;24.89;84.40
57232;BME280;43488;46.934;8.276;2023-08-12T11:12:55;96889.53;;;25.12;84.45
57232;BME280;43488;46.934;8.276;2023-08-12T11:15:44;96895.00;;;25.45;86.45
57232;BME280;43488;46.934;8.276;2023-08-12T11:18:16;96889.56;;;25.64;84.46
57232;BME280;43488;46.934;8.276;2023-08-12T11:20:44;96881.47;;;25.83;77.85
57232;BME280;43488;46.934;8.276;2023-08-12T11:23:12;96865.53;;;26.00;85.76
57232;BME280;43488;46.934;8.276;2023-08-12T11:25:42;96868.75;;;26.16;81.99
57232;BME280;43488;46.934;8.276;2023-08-12T11:28:11;96867.88;;;26.34;79.61
57232;BME280;43488;46.934;8.276;2023-08-12T11:30:41;96871.56;;;26.24;83.58
57232;BME280;43488;46.934;8.276;2023-08-12T11:33:09;96862.47;;;26.34;77.92
57232;BME280;43488;46.934;8.276;2023-08-12T11:35:37;96861.28;;;26.54;77.82
57232;BME280;43488;46.934;8.276;2023-08-12T11:38:05;96859.34;;;26.82;76.48
57232;BME280;43488;46.934;8.276;2023-08-12T11:40:34;96851.19;;;26.96;70.85
57232;BME280;43488;46.934;8.276;2023-08-12T11:43:02;96847.50;;;27.05;70.99
57232;BME280;43488;46.934;8.276;2023-08-12T11:45:32;96842.31;;;27.09;68.48
57232;BME280;43488;46.934;8.276;2023-08-12T11:47:59;96833.72;;;27.07;66.45
57232;BME280;43488;46.934;8.276;2023-08-12T11:50:30;96832.09;;;27.06;66.48
57232;BME280;43488;46.934;8.276;2023-08-12T11:53:01;96834.69;;;27.11;65.21
57232;BME280;43488;46.934;8.276;2023-08-12T11:55:29;96832.78;;;27.11;63.92
57232;BME280;43488;46.934;8.276;2023-08-12T11:57:59;96833.41;;;27.31;61.07
57232;BME280;43488;46.934;8.276;2023-08-12T12:00:27;96829.56;;;27.45;63.55
57232;BME280;43488;46.934;8.276;2023-08-12T12:02:58;96814.50;;;27.53;63.98
57232;BME280;43488;46.934;8.276;2023-08-12T12:05:28;96821.25;;;27.64;64.30
57232;BME280;43488;46.934;8.276;2023-08-12T12:07:59;96821.06;;;27.83;62.96
57232;BME280;43488;46.934;8.276;2023-08-12T12:10:34;96821.47;;;27.99;60.79
57232;BME280;43488;46.934;8.276;2023-08-12T12:13:04;96819.59;;;28.08;61.85
57232;BME280;43488;46.934;8.276;2023-08-12T12:15:39;96820.38;;;28.09;61.58
57232;BME280;43488;46.934;8.276;2023-08-12T12:18:12;96813.66;;;28.06;63.50
57232;BME280;43488;46.934;8.276;2023-08-12T12:20:57;96807.13;;;28.07;62.10
57232;BME280;43488;46.934;8.276;2023-08-12T12:23:29;96810.69;;;28.16;60.63
57232;BME280;43488;46.934;8.276;2023-08-12T12:26:02;96804.88;;;28.31;61.95
57232;BME280;43488;46.934;8.276;2023-08-12T12:28:30;96801.53;;;28.34;57.37
57232;BME280;43488;46.934;8.276;2023-08-12T12:30:58;96792.81;;;28.38;61.89
57232;BME280;43488;46.934;8.276;2023-08-12T12:33:25;96795.19;;;28.39;60.54
57232;BME280;43488;46.934;8.276;2023-08-12T12:35:52;96797.44;;;28.46;58.11
57232;BME280;43488;46.934;8.276;2023-08-12T12:38:20;96791.72;;;28.56;57.66
57232;BME280;43488;46.934;8.276;2023-08-12T12:40:47;96785.19;;;28.57;59.12
57232;BME280;43488;46.934;8.276;2023-08-12T12:43:15;96790.44;;;28.45;58.12
57232;BME280;43488;46.934;8.276;2023-08-12T12:45:42;96789.50;;;28.58;58.42
57232;BME280;43488;46.934;8.276;2023-08-12T12:48:09;96789.63;;;28.53;60.11
57232;BME280;43488;46.934;8.276;2023-08-12T12:50:37;96783.63;;;28.73;59.91
57232;BME280;43488;46.934;8.276;2023-08-12T12:53:05;96771.81;;;28.69;59.49
57232;BME280;43488;46.934;8.276;2023-08-12T12:55:33;96778.84;;;28.79;59.95
57232;BME280;43488;46.934;8.276;2023-08-12T12:58:01;96773.41;;;28.87;60.28
57232;BME280;43488;46.934;8.276;2023-08-12T13:00:28;96775.84;;;29.06;58.73
57232;BME280;43488;46.934;8.276;2023-08-12T13:02:56;96779.66;;;29.05;59.06
57232;BME280;43488;46.934;8.276;2023-08-12T13:05:23;96771.38;;;29.10;59.68
57232;BME280;43488;46.934;8.276;2023-08-12T13:07:52;96774.69;;;29.33;57.16
57232;BME280;43488;46.934;8.276;2023-08-12T13:10:20;96767.56;;;29.11;55.49
57232;BME280;43488;46.934;8.276;2023-08-12T13:12:48;96770.56;;;29.36;55.08
57232;BME280;43488;46.934;8.276;2023-08-12T13:15:15;96776.28;;;29.52;52.52
57232;BME280;43488;46.934;8.276;2023-08-12T13:17:43;96762.22;;;29.58;54.00